Wetterstation Vordersexau
Wetterdaten: Woche 05.05.14 - 11.05.14 (KW19)
Datum Zeit Temp. A. Feuchte A. Luftdruck Regen Wind Richtung Taupunkt Windchill Windben
05.05.2014 00:00 6,1 C 78 % 989,9 hPa 0,0 l/m 4,7 km/h SO 2,6 C 6,1 C 4,7 km/h
05.05.2014 01:00 5,8 C 80 % 989,7 hPa 0,0 l/m 0,7 km/h SO 2,6 C 5,8 C 0,7 km/h
05.05.2014 02:00 5,5 C 81 % 989,3 hPa 0,0 l/m 4,0 km/h NO 2,5 C 5,5 C 4,0 km/h
05.05.2014 03:00 4,4 C 83 % 988,9 hPa 0,0 l/m 0,0 km/h O 1,8 C 4,4 C 0,0 km/h
05.05.2014 04:00 3,9 C 84 % 988,5 hPa 0,0 l/m 0,0 km/h O-NO 1,4 C 3,9 C 0,0 km/h
05.05.2014 05:00 2,5 C 84 % 988,7 hPa 0,0 l/m 0,0 km/h O-SO 0,1 C 2,5 C 0,0 km/h
05.05.2014 06:00 1,6 C 85 % 989,1 hPa 0,0 l/m 0,0 km/h NO -0,6 C 1,6 C 0,0 km/h
05.05.2014 07:00 2,8 C 86 % 989,3 hPa 0,0 l/m 0,0 km/h O-SO 0,7 C 2,8 C 0,0 km/h
05.05.2014 08:00 15,0 C 66 % 989,2 hPa 0,0 l/m 0,0 km/h W-NW 8,7 C 15,0 C 0,0 km/h
05.05.2014 09:00 17,6 C 51 % 989,2 hPa 0,0 l/m 0,0 km/h W 7,3 C 17,6 C 0,0 km/h
05.05.2014 10:00 18,2 C 48 % 988,9 hPa 0,0 l/m 0,0 km/h NW 7,0 C 18,2 C 0,0 km/h
05.05.2014 11:00 20,3 C 46 % 988,6 hPa 0,0 l/m 0,0 km/h N-NW 8,3 C 20,3 C 0,0 km/h
05.05.2014 12:00 21,4 C 42 % 988,0 hPa 0,0 l/m 0,0 km/h W-NW 8,0 C 21,4 C 0,0 km/h
05.05.2014 13:00 21,9 C 42 % 987,3 hPa 0,0 l/m 0,0 km/h W-SW 8,4 C 21,9 C 0,0 km/h
05.05.2014 14:00 22,5 C 42 % 986,4 hPa 0,0 l/m 0,0 km/h W-NW 8,9 C 22,5 C 0,0 km/h
05.05.2014 15:00 25,1 C 36 % 986,1 hPa 0,0 l/m 0,0 km/h N-NO 9,0 C 25,1 C 0,0 km/h
05.05.2014 16:00 28,9 C 31 % 985,4 hPa 0,0 l/m 0,0 km/h W 10,1 C 28,9 C 0,0 km/h
05.05.2014 17:00 27,9 C 34 % 985,2 hPa 0,0 l/m 0,0 km/h S-SO 10,6 C 27,9 C 0,0 km/h
05.05.2014 18:00 31,0 C 28 % 984,7 hPa 0,0 l/m 0,0 km/h S 10,3 C 31,0 C 0,0 km/h
05.05.2014 19:00 24,7 C 40 % 984,3 hPa 0,0 l/m 0,0 km/h O-SO 10,2 C 24,7 C 0,0 km/h
05.05.2014 20:00 16,9 C 56 % 984,3 hPa 0,0 l/m 0,0 km/h O-SO 8,1 C 16,9 C 0,0 km/h
05.05.2014 21:00 12,8 C 66 % 984,9 hPa 0,0 l/m 0,0 km/h O-SO 6,6 C 12,8 C 0,0 km/h
05.05.2014 22:00 10,5 C 74 % 984,7 hPa 0,0 l/m 0,0 km/h SO 6,1 C 10,5 C 0,0 km/h
05.05.2014 23:00 9,6 C 78 % 984,8 hPa 0,0 l/m 0,0 km/h SO 6,0 C 9,6 C 0,0 km/h
06.05.2014 00:00 9,1 C 80 % 984,7 hPa 0,0 l/m 0,0 km/h SO 5,8 C 9,1 C 0,0 km/h
06.05.2014 01:00 8,9 C 80 % 984,2 hPa 0,0 l/m 0,0 km/h N-NO 5,6 C 8,9 C 0,0 km/h
06.05.2014 02:00 7,8 C 81 % 984,3 hPa 0,0 l/m 0,0 km/h O-NO 4,7 C 7,8 C 0,0 km/h
06.05.2014 03:00 6,4 C 83 % 984,4 hPa 0,0 l/m 0,0 km/h O-SO 3,7 C 6,4 C 0,0 km/h
06.05.2014 04:00 6,1 C 84 % 984,4 hPa 0,0 l/m 0,0 km/h O 3,6 C 6,1 C 0,0 km/h
06.05.2014 05:00 7,0 C 85 % 984,2 hPa 0,0 l/m 0,0 km/h SO 4,7 C 7,0 C 0,0 km/h
06.05.2014 06:00 6,9 C 85 % 984,1 hPa 0,0 l/m 5,2 km/h O-SO 4,6 C 6,9 C 2,9 km/h
06.05.2014 07:00 8,5 C 85 % 984,8 hPa 0,0 l/m 0,0 km/h N-NO 6,1 C 8,5 C 0,0 km/h
06.05.2014 08:00 15,4 C 75 % 985,1 hPa 0,0 l/m 0,0 km/h S-SO 11,0 C 15,4 C 0,0 km/h
06.05.2014 09:00 17,6 C 62 % 985,1 hPa 0,0 l/m 6,5 km/h W-SW 10,2 C 17,6 C 3,6 km/h
06.05.2014 10:00 20,1 C 54 % 985,1 hPa 0,0 l/m 14,9 km/h SW 10,5 C 17,4 C 8,3 km/h
06.05.2014 11:00 20,9 C 44 % 985,3 hPa 0,0 l/m 4,5 km/h W-SW 8,2 C 20,9 C 2,5 km/h
06.05.2014 12:00 21,9 C 42 % 985,6 hPa 0,0 l/m 22,7 km/h S 8,4 C 18,3 C 12,6 km/h
06.05.2014 13:00 22,6 C 43 % 985,0 hPa 0,0 l/m 14,3 km/h S 9,4 C 20,5 C 7,9 km/h
06.05.2014 14:00 20,2 C 45 % 985,4 hPa 0,0 l/m 31,8 km/h W-SW 7,9 C 14,8 C 17,6 km/h
06.05.2014 15:00 20,4 C 47 % 985,3 hPa 0,0 l/m 19,4 km/h W-SW 8,7 C 16,8 C 10,8 km/h
06.05.2014 16:00 21,4 C 48 % 984,6 hPa 0,0 l/m 3,2 km/h S-SW 9,9 C 21,4 C 1,8 km/h
06.05.2014 17:00 20,3 C 49 % 984,6 hPa 0,0 l/m 0,6 km/h S 9,2 C 20,3 C 0,4 km/h
06.05.2014 18:00 19,0 C 49 % 984,3 hPa 0,0 l/m 1,3 km/h S 8,0 C 19,0 C 0,7 km/h
06.05.2014 19:00 18,1 C 54 % 984,0 hPa 0,0 l/m 0,0 km/h S-SO 8,6 C 18,1 C 0,0 km/h
06.05.2014 20:00 16,9 C 56 % 984,5 hPa 0,0 l/m 0,0 km/h SW 8,1 C 16,9 C 0,0 km/h
06.05.2014 21:00 16,8 C 59 % 985,3 hPa 0,0 l/m 13,3 km/h S-SO 8,7 C 13,9 C 13,3 km/h
06.05.2014 22:00 16,1 C 62 % 985,3 hPa 0,0 l/m 7,2 km/h W 8,8 C 15,7 C 7,2 km/h
06.05.2014 23:00 15,6 C 62 % 985,0 hPa 0,0 l/m 2,2 km/h W 8,3 C 15,6 C 2,2 km/h
07.05.2014 00:00 14,5 C 68 % 984,4 hPa 0,0 l/m 0,7 km/h W-SW 8,7 C 14,5 C 0,7 km/h
07.05.2014 01:00 14,6 C 71 % 984,6 hPa 0,0 l/m 9,0 km/h SW 9,4 C 13,2 C 9,0 km/h
07.05.2014 02:00 14,3 C 73 % 984,3 hPa 0,0 l/m 2,9 km/h S-SW 9,5 C 14,3 C 2,9 km/h
07.05.2014 03:00 14,5 C 71 % 984,2 hPa 0,0 l/m 10,8 km/h S-SW 9,3 C 12,2 C 10,8 km/h
07.05.2014 04:00 14,5 C 71 % 984,1 hPa 0,0 l/m 12,6 km/h W 9,3 C 11,5 C 12,6 km/h
07.05.2014 05:00 14,8 C 69 % 983,6 hPa 0,0 l/m 24,0 km/h S-SW 9,2 C 8,5 C 13,3 km/h
07.05.2014 06:00 12,4 C 81 % 984,2 hPa 0,0 l/m 16,8 km/h W-SW 9,2 C 7,4 C 9,4 km/h
07.05.2014 07:00 11,9 C 84 % 985,0 hPa 0,2 l/m 22,0 km/h S-SW 9,3 C 5,2 C 12,2 km/h
07.05.2014 08:00 11,9 C 85 % 985,4 hPa 0,0 l/m 5,2 km/h SW 9,5 C 11,9 C 2,9 km/h
07.05.2014 09:00 13,5 C 84 % 985,8 hPa 0,0 l/m 33,7 km/h SW 10,8 C 5,0 C 18,7 km/h
07.05.2014 10:00 13,8 C 82 % 986,4 hPa 0,0 l/m 5,8 km/h W-SW 10,8 C 13,8 C 3,2 km/h
07.05.2014 11:00 18,9 C 73 % 986,2 hPa 0,0 l/m 24,0 km/h W 13,9 C 14,1 C 13,3 km/h
07.05.2014 12:00 15,8 C 71 % 986,4 hPa 0,0 l/m 14,9 km/h S 10,6 C 12,2 C 8,3 km/h
07.05.2014 13:00 14,9 C 77 % 986,6 hPa 0,2 l/m 0,0 km/h S-SO 10,9 C 14,9 C 0,0 km/h
07.05.2014 14:00 14,4 C 80 % 986,9 hPa 0,0 l/m 22,0 km/h W 11,0 C 8,5 C 12,2 km/h
07.05.2014 15:00 20,8 C 62 % 986,1 hPa 0,0 l/m 22,0 km/h N-NO 13,2 C 16,9 C 12,2 km/h
07.05.2014 16:00 13,5 C 78 % 986,9 hPa 0,2 l/m 0,0 km/h W-SW 9,7 C 13,5 C 0,0 km/h
07.05.2014 17:00 19,1 C 54 % 986,6 hPa 0,0 l/m 15,6 km/h W-SW 9,6 C 16,0 C 8,6 km/h
07.05.2014 18:00 18,9 C 57 % 985,8 hPa 0,0 l/m 19,4 km/h N-NO 10,2 C 14,9 C 10,8 km/h
07.05.2014 19:00 14,9 C 71 % 986,8 hPa 0,0 l/m 0,0 km/h SO 9,7 C 14,9 C 0,0 km/h
07.05.2014 20:00 13,3 C 73 % 987,5 hPa 0,0 l/m 0,0 km/h SO 8,6 C 13,3 C 0,0 km/h
07.05.2014 21:00 11,3 C 82 % 988,3 hPa 0,3 l/m 1,1 km/h SO 8,3 C 11,3 C 1,1 km/h
07.05.2014 22:00 9,9 C 85 % 988,8 hPa 0,2 l/m 0,0 km/h NO 7,5 C 9,9 C 0,0 km/h
07.05.2014 23:00 10,2 C 85 % 988,8 hPa 0,0 l/m 0,0 km/h O-SO 7,8 C 10,2 C 0,0 km/h
08.05.2014 00:00 10,2 C 85 % 989,5 hPa 0,3 l/m 0,0 km/h O-SO 7,8 C 10,2 C 0,0 km/h
08.05.2014 01:00 10,2 C 84 % 989,3 hPa 0,0 l/m 0,0 km/h NO 7,6 C 10,2 C 0,0 km/h
08.05.2014 02:00 9,3 C 85 % 989,0 hPa 0,0 l/m 0,0 km/h N-NW 6,9 C 9,3 C 0,0 km/h
08.05.2014 03:00 8,6 C 85 % 989,1 hPa 0,0 l/m 0,0 km/h N-NO 6,2 C 8,6 C 0,0 km/h
08.05.2014 04:00 8,4 C 83 % 988,6 hPa 0,0 l/m 2,2 km/h N-NO 5,7 C 8,4 C 2,2 km/h
08.05.2014 05:00 9,3 C 81 % 988,5 hPa 0,0 l/m 0,0 km/h N-NW 6,2 C 9,3 C 0,0 km/h
08.05.2014 06:00 10,1 C 81 % 988,3 hPa 0,0 l/m 0,0 km/h N-NO 7,0 C 10,1 C 0,0 km/h
08.05.2014 07:00 10,9 C 80 % 988,9 hPa 0,0 l/m 0,0 km/h SW 7,6 C 10,9 C 0,0 km/h
08.05.2014 08:00 16,9 C 79 % 988,9 hPa 0,0 l/m 0,0 km/h W-SW 13,2 C 16,9 C 0,0 km/h
08.05.2014 09:00 18,3 C 66 % 989,3 hPa 0,0 l/m 18,1 km/h SW 11,8 C 14,4 C 10,1 km/h
08.05.2014 10:00 16,9 C 70 % 988,9 hPa 0,0 l/m 22,7 km/h W-SW 11,4 C 11,6 C 12,6 km/h
08.05.2014 11:00 19,4 C 61 % 988,7 hPa 0,0 l/m 5,2 km/h W-SW 11,7 C 19,4 C 2,9 km/h
08.05.2014 12:00 19,8 C 57 % 988,6 hPa 0,0 l/m 15,6 km/h W 11,0 C 16,9 C 8,6 km/h
08.05.2014 13:00 19,4 C 59 % 988,4 hPa 0,0 l/m 17,5 km/h S-SW 11,2 C 15,9 C 9,7 km/h
08.05.2014 14:00 20,9 C 56 % 988,2 hPa 0,0 l/m 24,6 km/h S-SW 11,8 C 16,7 C 13,7 km/h
08.05.2014 15:00 22,6 C 48 % 987,4 hPa 0,0 l/m 17,5 km/h W-SW 11,0 C 20,0 C 9,7 km/h
08.05.2014 16:00 24,4 C 45 % 986,4 hPa 0,0 l/m 22,0 km/h W-SW 11,7 C 21,7 C 12,2 km/h
08.05.2014 17:00 21,8 C 48 % 986,1 hPa 0,0 l/m 24,0 km/h W-SW 10,3 C 18,0 C 13,3 km/h
08.05.2014 18:00 18,1 C 57 % 986,0 hPa 0,0 l/m 18,8 km/h SW 9,4 C 14,0 C 10,4 km/h
08.05.2014 19:00 17,6 C 59 % 985,8 hPa 0,0 l/m 23,3 km/h SW 9,5 C 12,4 C 13,0 km/h
08.05.2014 20:00 16,9 C 61 % 985,8 hPa 0,0 l/m 7,8 km/h W-SW 9,3 C 16,2 C 4,3 km/h
08.05.2014 21:00 16,4 C 64 % 986,3 hPa 0,0 l/m 8,3 km/h SO 9,6 C 15,4 C 8,3 km/h
08.05.2014 22:00 13,8 C 79 % 986,2 hPa 0,0 l/m 7,6 km/h SW 10,2 C 13,1 C 7,6 km/h
08.05.2014 23:00 13,8 C 79 % 986,3 hPa 0,0 l/m 0,0 km/h S 10,2 C 13,8 C 0,0 km/h
09.05.2014 00:00 12,9 C 84 % 987,1 hPa 0,3 l/m 13,0 km/h S 10,3 C 9,4 C 13,0 km/h
09.05.2014 01:00 13,6 C 83 % 986,8 hPa 0,2 l/m 8,6 km/h S-SW 10,8 C 12,3 C 8,6 km/h
09.05.2014 02:00 12,8 C 84 % 987,1 hPa 0,3 l/m 0,0 km/h S-SO 10,2 C 12,8 C 0,0 km/h
09.05.2014 03:00 13,3 C 85 % 986,9 hPa 0,0 l/m 0,7 km/h W 10,8 C 13,3 C 0,7 km/h
09.05.2014 04:00 13,8 C 84 % 986,8 hPa 0,0 l/m 0,0 km/h W-SW 11,1 C 13,8 C 0,0 km/h
09.05.2014 05:00 13,8 C 84 % 987,1 hPa 0,0 l/m 21,4 km/h W 11,1 C 7,8 C 11,9 km/h
09.05.2014 06:00 13,6 C 84 % 987,2 hPa 0,0 l/m 7,1 km/h S-SW 10,9 C 13,2 C 4,0 km/h
09.05.2014 07:00 13,9 C 85 % 987,8 hPa 0,0 l/m 3,9 km/h W 11,4 C 13,9 C 2,2 km/h
09.05.2014 08:00 14,5 C 84 % 988,1 hPa 0,0 l/m 10,4 km/h W-SW 11,8 C 12,4 C 5,8 km/h
09.05.2014 09:00 16,4 C 81 % 988,2 hPa 0,0 l/m 3,9 km/h SW 13,1 C 16,4 C 2,2 km/h
09.05.2014 10:00 17,1 C 79 % 988,3 hPa 0,0 l/m 33,7 km/h W-SW 13,4 C 10,1 C 18,7 km/h
09.05.2014 11:00 18,1 C 77 % 988,5 hPa 0,0 l/m 23,3 km/h SW 14,0 C 13,1 C 13,0 km/h
09.05.2014 12:00 21,0 C 66 % 988,3 hPa 0,0 l/m 22,7 km/h SW 14,4 C 17,1 C 12,6 km/h
09.05.2014 13:00 19,4 C 67 % 988,1 hPa 0,0 l/m 22,7 km/h W-SW 13,1 C 14,9 C 12,6 km/h
09.05.2014 14:00 19,4 C 65 % 988,1 hPa 0,0 l/m 35,0 km/h S-SW 12,6 C 13,3 C 19,4 km/h
09.05.2014 15:00 20,3 C 60 % 988,2 hPa 0,0 l/m 20,1 km/h W-SW 12,3 C 16,6 C 11,2 km/h
09.05.2014 16:00 22,8 C 59 % 987,4 hPa 0,0 l/m 10,4 km/h W-SW 14,4 C 21,6 C 5,8 km/h
09.05.2014 17:00 21,8 C 64 % 987,7 hPa 0,0 l/m 10,4 km/h W-SW 14,7 C 20,5 C 5,8 km/h
09.05.2014 18:00 19,1 C 73 % 987,5 hPa 0,3 l/m 9,7 km/h W-SW 14,1 C 17,8 C 5,4 km/h
09.05.2014 19:00 16,4 C 81 % 987,6 hPa 0,2 l/m 16,8 km/h SW 13,1 C 12,4 C 9,4 km/h
09.05.2014 20:00 15,7 C 79 % 987,8 hPa 0,0 l/m 0,0 km/h W-SW 12,1 C 15,7 C 0,0 km/h
09.05.2014 21:00 13,4 C 84 % 988,7 hPa 0,2 l/m 0,0 km/h SW 10,8 C 13,4 C 0,0 km/h
09.05.2014 22:00 13,5 C 85 % 988,9 hPa 0,2 l/m 1,8 km/h W-SW 11,0 C 13,5 C 1,8 km/h
09.05.2014 23:00 13,8 C 85 % 989,4 hPa 0,0 l/m 2,2 km/h N 11,3 C 13,8 C 2,2 km/h
10.05.2014 00:00 12,9 C 85 % 989,8 hPa 0,0 l/m 0,0 km/h NO 10,4 C 12,9 C 0,0 km/h
10.05.2014 01:00 11,3 C 85 % 989,9 hPa 0,0 l/m 0,0 km/h NO 8,9 C 11,3 C 0,0 km/h
10.05.2014 02:00 11,3 C 83 % 989,9 hPa 0,0 l/m 0,0 km/h O 8,5 C 11,3 C 0,0 km/h
10.05.2014 03:00 11,5 C 82 % 989,8 hPa 0,0 l/m 0,0 km/h O-NO 8,5 C 11,5 C 0,0 km/h
10.05.2014 04:00 11,0 C 81 % 989,7 hPa 0,0 l/m 0,0 km/h O-NO 7,9 C 11,0 C 0,0 km/h
10.05.2014 05:00 10,1 C 81 % 988,9 hPa 0,0 l/m 0,0 km/h O-NO 7,0 C 10,1 C 0,0 km/h
10.05.2014 06:00 10,1 C 80 % 988,8 hPa 0,0 l/m 0,0 km/h SO 6,8 C 10,1 C 0,0 km/h
10.05.2014 07:00 11,3 C 79 % 988,5 hPa 0,0 l/m 0,0 km/h SO 7,8 C 11,3 C 0,0 km/h
10.05.2014 08:00 12,7 C 77 % 988,1 hPa 0,0 l/m 0,0 km/h SW 8,8 C 12,7 C 0,0 km/h
10.05.2014 09:00 17,2 C 83 % 987,7 hPa 0,0 l/m 24,0 km/h S-SW 14,3 C 11,8 C 13,3 km/h
10.05.2014 10:00 18,4 C 70 % 987,0 hPa 0,0 l/m 23,3 km/h SW 12,8 C 13,5 C 13,0 km/h
10.05.2014 11:00 21,0 C 61 % 986,4 hPa 0,0 l/m 18,1 km/h W 13,2 C 17,8 C 10,1 km/h
10.05.2014 12:00 18,5 C 65 % 986,3 hPa 0,0 l/m 25,9 km/h SW 11,8 C 13,2 C 14,4 km/h
10.05.2014 13:00 20,6 C 58 % 985,4 hPa 0,0 l/m 14,9 km/h W-SW 12,0 C 18,0 C 8,3 km/h
10.05.2014 14:00 20,3 C 56 % 985,1 hPa 0,0 l/m 7,8 km/h S-SW 11,2 C 19,7 C 4,3 km/h
10.05.2014 15:00 18,2 C 63 % 984,6 hPa 0,0 l/m 8,4 km/h S 11,0 C 17,3 C 4,7 km/h
10.05.2014 16:00 17,7 C 68 % 983,4 hPa 0,0 l/m 14,3 km/h W-SW 11,7 C 14,7 C 7,9 km/h
10.05.2014 17:00 20,8 C 60 % 982,6 hPa 0,0 l/m 1,3 km/h SW 12,7 C 20,8 C 0,7 km/h
10.05.2014 18:00 17,9 C 64 % 981,9 hPa 0,0 l/m 15,6 km/h S-SW 11,0 C 14,5 C 8,6 km/h
10.05.2014 19:00 17,3 C 65 % 981,4 hPa 0,0 l/m 0,0 km/h S-SW 10,7 C 17,3 C 0,0 km/h
10.05.2014 20:00 17,6 C 63 % 981,5 hPa 0,0 l/m 16,8 km/h SW 10,5 C 13,9 C 9,4 km/h
10.05.2014 21:00 17,9 C 62 % 981,1 hPa 0,0 l/m 12,2 km/h W-SW 10,5 C 15,5 C 12,2 km/h
10.05.2014 22:00 17,9 C 65 % 981,5 hPa 0,0 l/m 15,5 km/h S-SW 11,2 C 14,6 C 15,5 km/h
10.05.2014 23:00 15,4 C 80 % 981,7 hPa 0,0 l/m 4,3 km/h SW 12,0 C 15,4 C 4,3 km/h
11.05.2014 00:00 16,0 C 78 % 981,7 hPa 0,0 l/m 11,5 km/h SW 12,2 C 13,6 C 11,5 km/h
11.05.2014 01:00 15,6 C 77 % 981,6 hPa 0,0 l/m 6,5 km/h SW 11,6 C 15,6 C 6,5 km/h
11.05.2014 02:00 15,4 C 75 % 981,1 hPa 0,0 l/m 11,5 km/h SW 11,0 C 12,9 C 11,5 km/h
11.05.2014 03:00 14,9 C 73 % 981,1 hPa 0,0 l/m 9,4 km/h S 10,1 C 13,3 C 9,4 km/h
11.05.2014 04:00 13,8 C 73 % 981,0 hPa 0,0 l/m 11,9 km/h W-SW 9,0 C 10,9 C 11,9 km/h
11.05.2014 05:00 13,1 C 75 % 981,1 hPa 0,0 l/m 16,2 km/h W 8,8 C 8,5 C 9,0 km/h
11.05.2014 06:00 12,4 C 73 % 981,0 hPa 0,0 l/m 44,7 km/h SW 7,7 C 1,9 C 24,8 km/h
11.05.2014 07:00 12,3 C 71 % 981,7 hPa 0,0 l/m 24,6 km/h S-SW 7,2 C 5,0 C 13,7 km/h
11.05.2014 08:00 12,4 C 72 % 981,9 hPa 0,0 l/m 21,4 km/h S 7,5 C 6,0 C 11,9 km/h
11.05.2014 09:00 13,7 C 66 % 982,3 hPa 0,0 l/m 20,7 km/h S-SW 7,5 C 7,9 C 11,5 km/h
11.05.2014 10:00 15,8 C 58 % 982,8 hPa 0,0 l/m 34,3 km/h W-NW 7,6 C 8,2 C 19,1 km/h
11.05.2014 11:00 18,3 C 53 % 982,5 hPa 0,0 l/m 35,6 km/h SW 8,6 C 11,6 C 19,8 km/h
11.05.2014 12:00 17,8 C 53 % 982,1 hPa 0,0 l/m 22,7 km/h W 8,1 C 12,8 C 12,6 km/h
11.05.2014 13:00 17,6 C 51 % 981,7 hPa 0,0 l/m 23,3 km/h SW 7,3 C 12,4 C 13,0 km/h
11.05.2014 14:00 18,1 C 56 % 981,0 hPa 0,0 l/m 24,6 km/h SW 9,2 C 12,9 C 13,7 km/h
11.05.2014 15:00 11,5 C 66 % 981,5 hPa 0,0 l/m 9,7 km/h S-SW 5,4 C 9,4 C 5,4 km/h
11.05.2014 16:00 8,9 C 84 % 983,9 hPa 1,2 l/m 36,9 km/h SW 6,3 C -2,2 C 20,5 km/h
11.05.2014 17:00 15,3 C 70 % 982,2 hPa 0,2 l/m 6,5 km/h W-SW 9,9 C 15,3 C 3,6 km/h
11.05.2014 18:00 11,9 C 69 % 982,7 hPa 0,0 l/m 24,0 km/h W-SW 6,4 C 4,7 C 13,3 km/h
11.05.2014 19:00 14,2 C 72 % 982,9 hPa 0,2 l/m 1,9 km/h W-SW 9,2 C 14,2 C 1,1 km/h
11.05.2014 20:00 9,6 C 78 % 983,2 hPa 0,0 l/m 0,0 km/h W-SW 6,0 C 9,6 C 0,0 km/h
11.05.2014 21:00 9,2 C 81 % 983,5 hPa 0,0 l/m 14,0 km/h S-SW 6,1 C 4,6 C 14,0 km/h
11.05.2014 22:00 8,4 C 82 % 984,4 hPa 0,0 l/m 1,4 km/h SW 5,5 C 8,4 C 1,4 km/h
11.05.2014 23:00 7,7 C 84 % 985,1 hPa 0,0 l/m 3,6 km/h S-SW 5,2 C 7,7 C 3,6 km/h
Min-Datum _ 05.05.14 05.05.14 11.05.14 - 05.05.14 - 05.05.14 11.05.14 05.05.14
_ Min-Zeit 06:19 18:19 04:19 - 03:19 - 06:19 16:19 03:19
Minimum _ 1,6 C 28 % 981,0 hPa - 0,0 km/h - -0,6 C -2,2 C 0,0 km/h
Max-Datum _ 05.05.14 05.05.14 05.05.14 11.05.14 11.05.14 - 09.05.14 05.05.14 11.05.14
_ Max-Zeit 18:19 07:19 00:19 16:19 06:19 - 17:19 18:19 06:19
Maximum _ 31,0 C 86 % 989,9 hPa 1,2 l/m 44,7 km/h
SW
- 14,7 C 31,0 C 24,8 km/h
SW
Durchschnitt _ 15,1 C 69 % 986,0 hPa #4,3 l/m 9,2 km/h W-SW 9,1 C 13,2 C 5,7 km/h
www.sexauwetter.de